KSDY/SDY METAR and TAF weather

Enter ICAO airport designator
Station Type Date Time Source
KSDY METAR 2020/09/19 04:56 UTC NOAA

KSDY 190456Z AUTO 17005KT 10SM CLR 14/08 A3000 RMK AO2 SLP551 T01440083


Station Type Date Time Source
KSDY Decoded METAR 2020/09/19 04:56 UTC NOAA

Sidney-Richland, MT, United States (KSDY) 47-42N 104-12W
Sep 19, 2020 - 12:56 AM EDT / 2020.09.19 0456 UTC
Wind: from the S (170 degrees) at 6 MPH (5 KT):0
Visibility: 10 mile(s):0
Sky conditions: clear
Temperature: 57.9 F (14.4 C)
Dew Point: 46.9 F (8.3 C)
Relative Humidity: 66%
Pressure (altimeter): 30 in. Hg (1015 hPa)
ob: KSDY 190456Z AUTO 17005KT 10SM CLR 14/08 A3000 RMK AO2 SLP551 T01440083
cycle: 5

Station Type Date Time Source
KSDY TAF 2020/09/18 18:33 UTC NOAA

TAF KSDY 181731Z 1818/1918 13009KT P6SM SKC
FM190700 VRB06KT 5SM HZ FEW180
FM191500 13009KT P6SM FEW200

Example: see airport list